createdAt,value
2024-04-23T00:00:56.144Z,101680.16
2024-04-23T00:03:23.962Z,101686.19
2024-04-23T00:05:55.386Z,101681.91
2024-04-23T00:08:27.619Z,101687.97
2024-04-23T00:11:02.433Z,101684.47
2024-04-23T00:13:30.463Z,101688.88
2024-04-23T00:15:58.611Z,101700.13
2024-04-23T00:18:26.543Z,101698.28
2024-04-23T00:20:54.500Z,101702.50
2024-04-23T00:23:22.395Z,101697.34
2024-04-23T00:25:50.400Z,101699.00
2024-04-23T00:28:20.748Z,101703.38
2024-04-23T00:30:48.704Z,101691.22
2024-04-23T00:33:17.813Z,101699.94
2024-04-23T00:35:45.651Z,101694.75
2024-04-23T00:38:13.304Z,101702.50
2024-04-23T00:40:41.085Z,101681.53
2024-04-23T00:43:08.910Z,101670.94
2024-04-23T00:45:47.038Z,101684.66
2024-04-23T00:48:17.074Z,101671.56
2024-04-23T00:50:46.280Z,101675.09
2024-04-23T00:53:15.826Z,101681.97
2024-04-23T00:55:44.334Z,101681.13
2024-04-23T00:58:12.678Z,101677.75
2024-04-23T01:00:43.856Z,101677.69
2024-04-23T01:03:31.501Z,101690.94
2024-04-23T01:05:59.551Z,101680.34
2024-04-23T01:08:27.423Z,101692.41
2024-04-23T01:11:00.855Z,101675.78
2024-04-23T01:13:28.744Z,101694.06
2024-04-23T01:15:59.629Z,101702.84
2024-04-23T01:18:30.124Z,101695.94
2024-04-23T01:21:02.211Z,101711.63
2024-04-23T01:23:39.074Z,101690.63
2024-04-23T01:26:11.622Z,101687.91
2024-04-23T01:28:42.205Z,101703.53
2024-04-23T01:31:15.471Z,101687.06
2024-04-23T01:33:44.538Z,101699.09
2024-04-23T01:36:12.761Z,101696.41
2024-04-23T01:38:41.894Z,101681.66
2024-04-23T01:41:13.717Z,101696.56
2024-04-23T01:43:42.024Z,101701.97
2024-04-23T01:46:14.570Z,101696.03
2024-04-23T01:48:42.552Z,101694.34
2024-04-23T01:51:10.379Z,101709.25
2024-04-23T01:53:38.089Z,101691.94
2024-04-23T01:56:06.620Z,101715.56
2024-04-23T01:58:38.159Z,101711.31
2024-04-23T02:01:27.365Z,101716.50
2024-04-23T02:03:55.003Z,101711.38
2024-04-23T02:06:24.040Z,101718.34
2024-04-23T02:08:52.438Z,101716.59
2024-04-23T02:11:22.297Z,101720.09
2024-04-23T02:13:52.696Z,101723.59
2024-04-23T02:16:22.529Z,101712.38
2024-04-23T02:18:50.316Z,101725.50
2024-04-23T02:21:18.074Z,101723.78
2024-04-23T02:24:08.084Z,101721.19
2024-04-23T02:26:43.292Z,101715.13
2024-04-23T02:29:36.235Z,101718.66
2024-04-23T02:32:27.333Z,101715.19
2024-04-23T02:34:59.708Z,101704.81
2024-04-23T02:37:44.346Z,101721.41
2024-04-23T02:40:28.740Z,101720.53
2024-04-23T02:43:04.554Z,101717.06
2024-04-23T02:45:50.449Z,101717.06
2024-04-23T02:48:18.359Z,101718.78
2024-04-23T02:50:47.157Z,101715.31
2024-04-23T02:53:15.007Z,101705.78
2024-04-23T02:55:42.851Z,101699.69
2024-04-23T02:58:10.674Z,101722.34
2024-04-23T03:00:38.529Z,101723.22
2024-04-23T03:03:12.082Z,101718.00
2024-04-23T03:05:39.922Z,101713.63
2024-04-23T03:08:08.212Z,101724.09
2024-04-23T03:10:35.957Z,101732.81
2024-04-23T03:13:03.723Z,101742.38
2024-04-23T03:15:31.639Z,101740.66
2024-04-23T03:17:59.666Z,101739.78
2024-04-23T03:20:30.984Z,101732.84
2024-04-23T03:22:59.203Z,101721.53
2024-04-23T03:25:26.976Z,101746.78
2024-04-23T03:27:56.560Z,101739.81
2024-04-23T03:30:24.277Z,101743.31
2024-04-23T03:32:55.630Z,101757.25
2024-04-23T03:35:23.616Z,101762.47
2024-04-23T03:37:53.969Z,101767.66
2024-04-23T03:40:21.768Z,101765.06
2024-04-23T03:42:53.819Z,101765.06
2024-04-23T03:45:21.486Z,101770.25
2024-04-23T03:47:49.255Z,101764.06
2024-04-23T03:50:17.021Z,101766.38
2024-04-23T03:52:45.244Z,101780.53
2024-04-23T03:55:17.676Z,101784.84
2024-04-23T03:57:45.507Z,101775.06
2024-04-23T04:00:19.120Z,101776.56
2024-04-23T04:02:47.099Z,101758.44
2024-04-23T04:05:14.885Z,101755.63
2024-04-23T04:10:26.930Z,101679.28
2024-04-23T04:13:07.845Z,101663.13
2024-04-23T04:15:42.544Z,101638.59
2024-04-23T04:18:10.785Z,101641.22
2024-04-23T04:20:38.411Z,101638.78
2024-04-23T04:23:08.274Z,101634.97
2024-04-23T04:25:38.980Z,101632.34
2024-04-23T04:28:07.315Z,101631.66
2024-04-23T04:30:37.127Z,101636.13
2024-04-23T04:33:05.224Z,101641.00
2024-04-23T04:35:33.208Z,101639.59
2024-04-23T04:38:01.605Z,101632.00
2024-04-23T04:40:30.060Z,101616.78
2024-04-23T04:43:00.627Z,101620.06
2024-04-23T04:45:30.008Z,101606.72
2024-04-23T04:47:58.313Z,101598.22
2024-04-23T04:50:26.097Z,101602.28
2024-04-23T04:52:56.629Z,101600.81
2024-04-23T04:55:26.189Z,101593.28
2024-04-23T04:57:56.197Z,101595.63
2024-04-23T05:00:28.500Z,101591.97
2024-04-23T05:02:56.262Z,101597.34
2024-04-23T05:05:24.678Z,101590.88
2024-04-23T05:07:52.953Z,101595.94
2024-04-23T05:10:20.854Z,101584.72
2024-04-23T05:12:48.839Z,101582.94
2024-04-23T05:15:17.101Z,101577.69
2024-04-23T05:17:48.213Z,101581.53
2024-04-23T05:20:16.612Z,101589.28
2024-04-23T05:22:45.023Z,101576.41
2024-04-23T05:25:13.113Z,101574.66
2024-04-23T05:27:45.328Z,101581.91
2024-04-23T05:30:13.610Z,101595.88
2024-04-23T05:32:42.211Z,101608.06
2024-04-23T05:35:14.980Z,101608.00
2024-04-23T05:37:43.806Z,101600.09
2024-04-23T05:40:13.046Z,101604.69
2024-04-23T05:42:40.962Z,101608.50
2024-04-23T05:45:09.170Z,101600.59
2024-04-23T05:48:14.957Z,101606.63
2024-04-23T05:51:20.579Z,101612.00
2024-04-23T05:54:26.261Z,101606.84
2024-04-23T05:56:56.807Z,101625.47
2024-04-23T05:59:24.964Z,101608.09
2024-04-23T06:01:52.764Z,101618.97
2024-04-23T06:04:21.100Z,101615.22
2024-04-23T06:06:49.085Z,101614.16
2024-04-23T06:09:21.376Z,101631.22
2024-04-23T06:11:49.341Z,101618.91
2024-04-23T06:14:20.028Z,101617.56
2024-04-23T06:17:23.097Z,101607.91
2024-04-23T06:19:57.161Z,101597.25
2024-04-23T06:22:27.546Z,101601.03
2024-04-23T06:25:01.563Z,101588.09
2024-04-23T06:27:29.517Z,101610.13
2024-04-23T06:30:08.489Z,101606.97
2024-04-23T06:32:37.331Z,101594.25
2024-04-23T06:35:06.610Z,101599.03
2024-04-23T06:37:35.568Z,101609.81
2024-04-23T06:40:03.726Z,101604.16
2024-04-23T06:42:31.974Z,101599.88
2024-04-23T06:45:02.695Z,101613.97
2024-04-23T06:47:30.754Z,101615.00
2024-04-23T06:49:58.751Z,101630.81
2024-04-23T06:52:26.999Z,101611.97
2024-04-23T06:54:55.081Z,101633.75
2024-04-23T06:57:22.952Z,101622.84
2024-04-23T06:59:50.822Z,101633.72
2024-04-23T07:02:23.991Z,101655.88
2024-04-23T07:04:52.179Z,101652.91
2024-04-23T07:07:20.132Z,101615.34
2024-04-23T07:09:48.019Z,101641.84
2024-04-23T07:12:15.943Z,101624.41
2024-04-23T07:14:43.911Z,101625.53
2024-04-23T07:17:11.937Z,101622.50
2024-04-23T07:19:42.708Z,101616.75
2024-04-23T07:22:10.578Z,101624.31
2024-04-23T07:24:42.764Z,101604.41
2024-04-23T07:27:10.722Z,101621.25
2024-04-23T07:29:43.030Z,101617.28
2024-04-23T07:32:11.319Z,101613.16
2024-04-23T07:34:42.529Z,101601.72
2024-04-23T07:37:11.610Z,101596.59
2024-04-23T07:39:48.631Z,101592.75
2024-04-23T07:42:16.531Z,101612.97
2024-04-23T07:44:45.138Z,101613.63
2024-04-23T07:47:13.053Z,101623.09
2024-04-23T07:49:44.516Z,101617.25
2024-04-23T07:52:13.638Z,101622.59
2024-04-23T07:54:41.792Z,101617.81
2024-04-23T07:57:14.552Z,101623.00
2024-04-23T07:59:42.871Z,101613.13
2024-04-23T08:02:13.418Z,101599.22
2024-04-23T08:04:46.377Z,101594.44
2024-04-23T08:07:14.519Z,101603.16
2024-04-23T08:09:43.280Z,101594.81
2024-04-23T08:12:11.473Z,101595.00
2024-04-23T08:14:40.847Z,101596.53
2024-04-23T08:17:11.281Z,101620.69
2024-04-23T08:19:47.026Z,101593.31
2024-04-23T08:22:15.605Z,101618.81
2024-04-23T08:24:43.906Z,101614.41
2024-04-23T08:27:12.408Z,101616.97
2024-04-23T08:29:42.585Z,101595.19
2024-04-23T08:32:11.242Z,101586.81
2024-04-23T08:34:39.505Z,101609.13
2024-04-23T08:37:11.570Z,101608.41
2024-04-23T08:39:39.754Z,101609.75
2024-04-23T08:42:10.361Z,101594.66
2024-04-23T08:44:45.259Z,101607.69
2024-04-23T08:47:13.873Z,101610.28
2024-04-23T08:49:42.269Z,101587.66
2024-04-23T08:52:14.833Z,101594.16
2024-04-23T08:54:43.428Z,101570.41
2024-04-23T08:57:16.692Z,101611.19
2024-04-23T08:59:50.998Z,101589.91
2024-04-23T09:02:26.523Z,101594.69
2024-04-23T09:04:56.579Z,101607.66
2024-04-23T09:07:33.402Z,101598.09
2024-04-23T09:10:02.756Z,101606.56
2024-04-23T09:12:37.488Z,101604.81
2024-04-23T09:15:06.072Z,101591.72
2024-04-23T09:17:35.601Z,101613.75
2024-04-23T09:20:04.925Z,101619.19
2024-04-23T09:22:40.416Z,101618.75
2024-04-23T09:25:09.111Z,101620.00
2024-04-23T09:27:41.168Z,101623.78
2024-04-23T09:30:10.747Z,101614.28
2024-04-23T09:32:39.602Z,101614.75
2024-04-23T09:35:16.991Z,101614.84
2024-04-23T09:37:52.561Z,101592.34
2024-04-23T09:40:20.553Z,101593.94
2024-04-23T09:42:48.659Z,101592.75
2024-04-23T09:45:19.727Z,101597.94
2024-04-23T09:47:47.705Z,101586.34
2024-04-23T09:50:16.025Z,101602.69
2024-04-23T09:52:46.124Z,101595.66
2024-04-23T09:55:18.326Z,101590.34
2024-04-23T09:57:50.519Z,101567.41
2024-04-23T10:00:21.824Z,101575.91
2024-04-23T10:02:53.931Z,101557.84
2024-04-23T10:05:27.406Z,101553.75
2024-04-23T10:08:03.378Z,101555.75
2024-04-23T10:10:43.385Z,101534.53
2024-04-23T10:13:16.648Z,101538.34
2024-04-23T10:15:52.668Z,101532.91
2024-04-23T10:18:28.960Z,101533.03
2024-04-23T10:20:57.766Z,101548.78
2024-04-23T10:23:26.106Z,101548.28
2024-04-23T10:25:57.178Z,101547.41
2024-04-23T10:28:25.317Z,101557.13
2024-04-23T10:30:53.688Z,101544.19
2024-04-23T10:33:22.723Z,101548.34
2024-04-23T10:35:51.265Z,101541.66
2024-04-23T10:38:21.863Z,101541.59
2024-04-23T10:40:58.120Z,101555.94
2024-04-23T10:43:30.030Z,101544.69
2024-04-23T10:45:58.059Z,101550.00
2024-04-23T10:48:27.189Z,101535.59
2024-04-23T10:50:57.179Z,101527.41
2024-04-23T10:53:25.108Z,101527.13
2024-04-23T10:55:55.112Z,101541.16
2024-04-23T10:58:23.188Z,101541.56
2024-04-23T11:01:03.144Z,101544.91
2024-04-23T11:03:35.988Z,101540.59
2024-04-23T11:06:12.480Z,101539.09
2024-04-23T11:09:13.663Z,101539.31
2024-04-23T11:11:49.568Z,101536.72
2024-04-23T11:14:17.503Z,101527.91
2024-04-23T11:16:50.223Z,101525.16
2024-04-23T11:19:23.464Z,101524.38
2024-04-23T11:21:51.372Z,101523.09
2024-04-23T11:24:25.591Z,101527.28
2024-04-23T11:26:53.454Z,101526.53
2024-04-23T11:29:22.613Z,101517.13
2024-04-23T11:31:53.456Z,101505.25
2024-04-23T11:34:22.555Z,101501.84
2024-04-23T11:36:51.622Z,101492.50
2024-04-23T11:39:24.991Z,101493.66
2024-04-23T11:41:53.051Z,101475.81
2024-04-23T11:44:24.062Z,101466.88
2024-04-23T11:46:54.876Z,101463.75
2024-04-23T11:49:23.119Z,101447.53
2024-04-23T11:51:53.823Z,101451.31
2024-04-23T11:54:22.139Z,101459.28
2024-04-23T11:56:50.307Z,101465.75
2024-04-23T11:59:18.805Z,101466.59
2024-04-23T12:01:50.868Z,101453.38
2024-04-23T12:04:22.926Z,101460.13
2024-04-23T12:06:51.402Z,101449.03
2024-04-23T12:09:20.494Z,101418.09
2024-04-23T12:11:48.508Z,101436.38
2024-04-23T12:14:16.880Z,101418.81
2024-04-23T12:16:45.312Z,101432.59
2024-04-23T12:19:14.395Z,101421.25
2024-04-23T12:21:45.098Z,101423.63
2024-04-23T12:24:14.959Z,101412.38
2024-04-23T12:26:42.871Z,101402.69
2024-04-23T12:29:11.212Z,101362.78
2024-04-23T12:31:39.929Z,101409.28
2024-04-23T12:34:09.208Z,101393.09
2024-04-23T12:36:38.188Z,101391.22
2024-04-23T12:39:17.277Z,101389.72
2024-04-23T12:41:45.372Z,101392.63
2024-04-23T12:44:16.322Z,101399.94
2024-04-23T12:46:44.460Z,101397.94
2024-04-23T12:49:13.465Z,101406.88
2024-04-23T12:51:42.413Z,101404.16
2024-04-23T12:54:12.992Z,101399.28
2024-04-23T12:56:40.939Z,101384.22
2024-04-23T12:59:09.000Z,101392.56
2024-04-23T13:01:45.267Z,101403.69
2024-04-23T13:04:18.009Z,101401.66
2024-04-23T13:06:46.125Z,101399.28
2024-04-23T13:09:16.715Z,101400.13
2024-04-23T13:11:44.666Z,101375.50
2024-04-23T13:14:32.422Z,101384.69
2024-04-23T13:17:00.523Z,101368.38
2024-04-23T13:19:28.444Z,101386.78
2024-04-23T13:21:56.468Z,101396.81
2024-04-23T13:24:27.086Z,101394.47
2024-04-23T13:26:55.040Z,101397.41
2024-04-23T13:29:24.988Z,101374.53
2024-04-23T13:31:53.311Z,101378.28
2024-04-23T13:34:21.366Z,101376.25
2024-04-23T13:36:49.369Z,101386.38
2024-04-23T13:39:17.322Z,101359.75
2024-04-23T13:41:47.906Z,101378.03
2024-04-23T13:44:15.806Z,101349.00
2024-04-23T13:46:43.875Z,101368.53
2024-04-23T13:49:11.692Z,101367.69
2024-04-23T13:51:41.695Z,101337.47
2024-04-23T13:54:09.945Z,101299.41
2024-04-23T13:56:37.931Z,101347.38
2024-04-23T13:59:08.564Z,101333.34
2024-04-23T14:01:38.352Z,101314.03
2024-04-23T14:04:06.243Z,101328.34
2024-04-23T14:06:34.287Z,101335.03
2024-04-23T14:09:02.249Z,101317.81
2024-04-23T14:11:32.579Z,101338.88
2024-04-23T14:14:00.646Z,101317.16
2024-04-23T14:16:31.312Z,101312.06
2024-04-23T14:18:59.455Z,101315.38
2024-04-23T14:21:27.523Z,101325.59
2024-04-23T14:23:56.432Z,101305.59
2024-04-23T14:26:24.308Z,101309.22
2024-04-23T14:28:52.676Z,101301.84
2024-04-23T14:31:20.855Z,101300.38
2024-04-23T14:33:51.440Z,101299.78
2024-04-23T14:36:19.349Z,101275.91
2024-04-23T14:38:47.574Z,101282.28
2024-04-23T14:41:16.208Z,101273.78
2024-04-23T14:43:44.225Z,101265.31
2024-04-23T14:46:13.111Z,101299.28
2024-04-23T14:48:42.004Z,101272.44
2024-04-23T14:51:13.558Z,101287.13
2024-04-23T14:53:43.793Z,101283.81
2024-04-23T14:56:11.649Z,101286.44
2024-04-23T14:58:39.625Z,101272.66
2024-04-23T15:01:11.226Z,101263.22
2024-04-23T15:03:39.494Z,101266.88
2024-04-23T15:06:08.657Z,101261.81
2024-04-23T15:08:41.503Z,101250.84
2024-04-23T15:11:10.918Z,101252.59
2024-04-23T15:13:39.610Z,101259.59
2024-04-23T15:16:10.746Z,101262.50
2024-04-23T15:18:40.138Z,101263.44
2024-04-23T15:21:18.370Z,101240.13
2024-04-23T15:23:49.065Z,101246.03
2024-04-23T15:26:17.847Z,101250.63
2024-04-23T15:28:45.821Z,101241.31
2024-04-23T15:31:13.779Z,101228.41
2024-04-23T15:33:42.593Z,101231.97
2024-04-23T15:36:17.117Z,101227.72
2024-04-23T15:38:57.893Z,101215.66
2024-04-23T15:41:25.907Z,101212.31
2024-04-23T15:43:54.018Z,101202.91
2024-04-23T15:46:21.981Z,101192.66
2024-04-23T15:48:49.942Z,101203.13
2024-04-23T15:51:17.904Z,101198.13
2024-04-23T15:53:45.768Z,101166.25
2024-04-23T15:56:16.437Z,101185.09
2024-04-23T15:58:44.496Z,101158.13
2024-04-23T16:01:12.628Z,101151.19
2024-04-23T16:03:40.872Z,101162.38
2024-04-23T16:06:15.482Z,101151.81
2024-04-23T16:08:43.498Z,101153.59
2024-04-23T16:11:11.637Z,101147.63
2024-04-23T16:13:46.268Z,101143.31
2024-04-23T16:16:14.197Z,101144.25
2024-04-23T16:18:42.227Z,101132.22
2024-04-23T16:21:10.382Z,101146.13
2024-04-23T16:23:39.035Z,101139.41
2024-04-23T16:26:07.593Z,101127.00
2024-04-23T16:28:35.695Z,101128.00
2024-04-23T16:31:07.363Z,101127.22
2024-04-23T16:33:35.880Z,101129.88
2024-04-23T16:36:07.845Z,101123.16
2024-04-23T16:38:36.275Z,101102.34
2024-04-23T16:41:06.740Z,101117.09
2024-04-23T16:43:35.033Z,101120.53
2024-04-23T16:46:10.473Z,101130.28
2024-04-23T16:48:40.598Z,101127.81
2024-04-23T16:51:10.117Z,101129.66
2024-04-23T16:53:37.993Z,101134.13
2024-04-23T16:56:11.251Z,101139.56
2024-04-23T16:58:39.388Z,101136.38
2024-04-23T17:01:10.713Z,101129.56
2024-04-23T17:03:38.802Z,101159.03
2024-04-23T17:06:06.784Z,101160.00
2024-04-23T17:08:38.951Z,101172.41
2024-04-23T17:11:06.957Z,101160.28
2024-04-23T17:13:35.265Z,101164.63
2024-04-23T17:16:16.510Z,101165.63
2024-04-23T17:18:44.623Z,101171.97
2024-04-23T17:21:13.849Z,101167.53
2024-04-23T17:23:47.361Z,101156.34
2024-04-23T17:26:15.530Z,101150.38
2024-04-23T17:28:43.848Z,101158.38
2024-04-23T17:31:11.942Z,101155.72
2024-04-23T17:33:42.561Z,101155.88
2024-04-23T17:36:12.711Z,101146.31
2024-04-23T17:38:40.781Z,101143.72
2024-04-23T17:41:29.543Z,101134.13
2024-04-23T17:43:57.492Z,101140.13
2024-04-23T17:46:25.714Z,101148.78
2024-04-23T17:48:56.240Z,101137.47
2024-04-23T17:51:24.215Z,101153.28
2024-04-23T17:53:52.485Z,101153.56
2024-04-23T17:56:20.458Z,101151.63
2024-04-23T17:58:50.831Z,101150.66
2024-04-23T18:01:18.647Z,101146.28
2024-04-23T18:03:51.956Z,101150.50
2024-04-23T18:06:22.566Z,101166.31
2024-04-23T18:08:50.419Z,101166.38
2024-04-23T18:11:18.304Z,101167.28
2024-04-23T18:13:48.202Z,101169.09
2024-04-23T18:16:16.893Z,101151.16
2024-04-23T18:18:46.168Z,101158.09
2024-04-23T18:21:14.194Z,101170.09
2024-04-23T18:23:44.691Z,101168.34
2024-04-23T18:26:12.663Z,101171.84
2024-04-23T18:28:40.788Z,101171.03
2024-04-23T18:31:08.994Z,101174.56
2024-04-23T18:33:41.192Z,101173.69
2024-04-23T18:36:30.144Z,101147.50
2024-04-23T18:39:11.283Z,101128.47
2024-04-23T18:41:53.373Z,101100.06
2024-04-23T18:44:34.386Z,101112.38
2024-04-23T18:48:02.482Z,101104.69
2024-04-23T18:50:43.154Z,101089.16
2024-04-23T18:53:47.161Z,101107.06
2024-04-23T18:56:37.737Z,101115.94
2024-04-23T19:03:20.447Z,101090.94
2024-04-23T19:05:48.363Z,101111.78
2024-04-23T19:08:16.225Z,101110.91
2024-04-23T19:10:44.113Z,101107.56
2024-04-23T19:13:14.709Z,101106.66
2024-04-23T19:15:42.553Z,101101.38
2024-04-23T19:18:10.544Z,101096.09
2024-04-23T19:20:38.500Z,101099.59
2024-04-23T19:23:06.525Z,101082.13
2024-04-23T19:25:34.455Z,101087.38
2024-04-23T19:28:02.416Z,101071.72
2024-04-23T19:30:33.103Z,101061.19
2024-04-23T19:33:02.163Z,101056.84
2024-04-23T19:35:31.857Z,101041.31
2024-04-23T19:37:59.810Z,101049.09
2024-04-23T19:40:27.694Z,101053.56
2024-04-23T19:42:55.701Z,101054.47
2024-04-23T19:45:23.589Z,101045.78
2024-04-23T19:47:54.162Z,101033.56
2024-04-23T19:50:22.205Z,101038.75
2024-04-23T19:52:50.236Z,101035.25
2024-04-23T19:55:18.193Z,101030.84
2024-04-23T19:57:46.165Z,101030.84
2024-04-23T20:00:14.841Z,101037.88
2024-04-23T20:02:42.716Z,101025.75
2024-04-23T20:05:13.523Z,101037.94
2024-04-23T20:07:41.427Z,101035.28
2024-04-23T20:10:09.306Z,101043.19
2024-04-23T20:12:37.383Z,101038.91
2024-04-23T20:15:06.019Z,101032.81
2024-04-23T20:17:34.445Z,101025.06
2024-04-23T20:20:02.608Z,101027.72
2024-04-23T20:22:33.309Z,101037.44
2024-04-23T20:25:01.246Z,101037.53
2024-04-23T20:27:29.625Z,101042.84
2024-04-23T20:29:57.468Z,101044.53
2024-04-23T20:32:25.408Z,101043.66
2024-04-23T20:34:53.358Z,101054.19
2024-04-23T20:37:21.314Z,101055.03
2024-04-23T20:39:51.913Z,101050.69
2024-04-23T20:42:19.997Z,101055.97
2024-04-23T20:44:47.860Z,101042.84
2024-04-23T20:47:15.985Z,101035.06
2024-04-23T20:49:43.990Z,101036.75
2024-04-23T20:52:11.886Z,101034.25
2024-04-23T20:54:39.772Z,101034.31
2024-04-23T20:57:10.271Z,101028.97
2024-04-23T20:59:38.256Z,101034.25
2024-04-23T21:02:06.561Z,101030.69
2024-04-23T21:04:34.811Z,101028.97
2024-04-23T21:07:02.681Z,101040.41
2024-04-23T21:09:30.688Z,101047.47
2024-04-23T21:11:58.790Z,101045.69
2024-04-23T21:14:29.419Z,101048.38
2024-04-23T21:16:57.399Z,101042.31
2024-04-23T21:19:25.795Z,101040.59
2024-04-23T21:21:54.240Z,101040.56
2024-04-23T21:24:22.441Z,101035.34
2024-04-23T21:26:50.280Z,101034.53
2024-04-23T21:29:18.049Z,101031.97
2024-04-23T21:31:48.507Z,101017.16
2024-04-23T21:34:16.347Z,101025.94
2024-04-23T21:36:44.070Z,101038.22
2024-04-23T21:39:11.818Z,101022.53
2024-04-23T21:41:39.650Z,101008.69
2024-04-23T21:44:07.576Z,101012.00
2024-04-23T21:46:35.488Z,101002.38
2024-04-23T21:49:06.033Z,101002.41
2024-04-23T21:51:35.788Z,100986.63
2024-04-23T21:54:04.531Z,100970.03
2024-04-23T21:56:32.283Z,100968.38
2024-04-23T21:59:00.080Z,100971.94
2024-04-23T22:01:27.921Z,100958.91
2024-04-23T22:03:55.638Z,100976.47
2024-04-23T22:06:26.235Z,100977.47
2024-04-23T22:08:53.921Z,100971.44
2024-04-23T22:14:06.431Z,100967.13
2024-04-23T22:16:34.292Z,100967.25
2024-04-23T22:19:01.933Z,100957.63
2024-04-23T22:21:32.403Z,100955.91
2024-04-23T22:24:00.092Z,100948.91
2024-04-23T22:26:27.953Z,100941.03
2024-04-23T22:28:55.800Z,100932.28
2024-04-23T22:31:23.518Z,100930.63
2024-04-23T22:33:51.372Z,100923.63
2024-04-23T22:36:19.136Z,100912.22
2024-04-23T22:38:49.599Z,100914.06
2024-04-23T22:41:17.528Z,100909.69
2024-04-23T22:43:45.576Z,100910.56
2024-04-23T22:46:13.388Z,100910.56
2024-04-23T22:48:41.354Z,100904.38
2024-04-23T22:51:09.195Z,100895.66
2024-04-23T22:53:36.932Z,100892.09
2024-04-23T22:56:07.623Z,100897.34
2024-04-23T22:58:35.397Z,100891.25
2024-04-23T23:01:03.295Z,100885.13
2024-04-23T23:03:31.118Z,100893.91
2024-04-23T23:05:58.851Z,100884.31
2024-04-23T23:08:26.564Z,100887.84
2024-04-23T23:11:02.200Z,100887.84
2024-04-23T23:13:33.800Z,100872.97
2024-04-23T23:16:05.421Z,100875.59
2024-04-23T23:18:39.905Z,100859.91
2024-04-23T23:21:23.246Z,100862.47
2024-04-23T23:24:00.114Z,100858.13
2024-04-23T23:26:31.491Z,100852.06
2024-04-23T23:29:03.001Z,100852.94
2024-04-23T23:31:31.112Z,100858.19
2024-04-23T23:33:59.480Z,100846.78
2024-04-23T23:36:27.932Z,100841.53
2024-04-23T23:39:01.277Z,100837.22
2024-04-23T23:41:29.083Z,100838.09
2024-04-23T23:43:56.970Z,100825.16
2024-04-23T23:46:27.287Z,100811.31
